BAW21B EGLL-KLAX
Flight info
| Callsign | BAW21B |
|---|---|
| Flight time | N/A |
| Altitude | 36000 |
| Route | GASGU N514 ADKIK DCT FONZU DCT LEDGO DCT NEBIN/M083F320 DCT 54N020W/M083F340 5630N03000W 57N040W 5730N05000W DCT AVUTI/N0482F360 DCT KLIPS DCT GRAND DCT GABOV DCT GFK DCT KP09A DCT KD84U/N0483F380 DCT KU69Q DCT KU57O DCT WINEN/N0473F370 Q73 EEVUN/N0473F360 Q73 HAKMN ANJLL4 |
| Aircraft | B77W/H-SDE1E2E3FGHIJ2J3J4J5M1RWXY/LB1D1 |
Departure
| Time | N/A |
|---|---|
| Airport | London Heathrow Airport (EGLL) |
Arrival
| Time | 2026-04-22 22:04 |
|---|---|
| Airport | Los Angeles International Airport (KLAX) |
| Time | Latitude | Longitude | Altitude | Speed | Heading |
|---|---|---|---|---|---|
| 2026-04-22 20:12 | 42.33910 | -108.71709 | 35744 ft | 432 kts | 228° |
| 2026-04-22 20:13 | 42.31944 | -108.74778 | 35744 ft | 432 kts | 228° |
| 2026-04-22 20:13 | 42.28033 | -108.80876 | 35754 ft | 432 kts | 228° |
| 2026-04-22 20:14 | 42.24094 | -108.87005 | 35756 ft | 432 kts | 228° |
| 2026-04-22 20:14 | 42.20150 | -108.93129 | 35753 ft | 432 kts | 228° |
| 2026-04-22 20:15 | 42.16210 | -108.99234 | 35765 ft | 431 kts | 228° |
| 2026-04-22 20:15 | 42.12271 | -109.05325 | 35768 ft | 431 kts | 228° |
| 2026-04-22 20:16 | 42.08333 | -109.11402 | 35767 ft | 431 kts | 228° |
| 2026-04-22 20:16 | 42.04392 | -109.17472 | 35780 ft | 431 kts | 229° |
| 2026-04-22 20:17 | 42.00442 | -109.23542 | 35774 ft | 431 kts | 229° |
| 2026-04-22 20:17 | 41.96491 | -109.29601 | 35768 ft | 430 kts | 229° |
| 2026-04-22 20:18 | 41.92552 | -109.35630 | 35779 ft | 429 kts | 229° |
| 2026-04-22 20:18 | 41.88623 | -109.41631 | 35781 ft | 428 kts | 229° |
| 2026-04-22 20:19 | 41.84699 | -109.47614 | 35802 ft | 427 kts | 229° |
| 2026-04-22 20:19 | 41.80776 | -109.53583 | 35793 ft | 427 kts | 229° |
| 2026-04-22 20:20 | 41.76869 | -109.59515 | 35792 ft | 426 kts | 229° |
| 2026-04-22 20:20 | 41.72941 | -109.65466 | 35786 ft | 427 kts | 229° |
| 2026-04-22 20:21 | 41.69009 | -109.71412 | 35787 ft | 426 kts | 229° |
| 2026-04-22 20:21 | 41.65086 | -109.77332 | 35794 ft | 425 kts | 229° |
| 2026-04-22 20:22 | 41.61167 | -109.83237 | 35800 ft | 424 kts | 229° |
| 2026-04-22 20:22 | 41.57247 | -109.89131 | 35805 ft | 424 kts | 229° |
| 2026-04-22 20:23 | 41.53393 | -109.94916 | 35817 ft | 425 kts | 229° |
| 2026-04-22 20:23 | 41.49322 | -110.00626 | 35820 ft | 426 kts | 224° |
| 2026-04-22 20:24 | 41.44680 | -110.05559 | 35898 ft | 427 kts | 220° |
| 2026-04-22 20:24 | 41.39981 | -110.10388 | 35919 ft | 426 kts | 220° |
| 2026-04-22 20:25 | 41.35301 | -110.15218 | 35953 ft | 425 kts | 220° |
| 2026-04-22 20:25 | 41.30622 | -110.20049 | 35959 ft | 425 kts | 220° |
| 2026-04-22 20:26 | 41.26742 | -110.24048 | 35970 ft | 425 kts | 220° |
| 2026-04-22 20:26 | 41.22068 | -110.28859 | 35961 ft | 425 kts | 220° |
| 2026-04-22 20:27 | 41.17385 | -110.33669 | 35932 ft | 424 kts | 221° |
| 2026-04-22 20:27 | 41.12723 | -110.38448 | 35938 ft | 423 kts | 221° |
| 2026-04-22 20:28 | 41.08068 | -110.43211 | 35922 ft | 422 kts | 221° |
| 2026-04-22 20:28 | 41.03413 | -110.47966 | 35938 ft | 422 kts | 220° |
| 2026-04-22 20:29 | 40.98751 | -110.52719 | 35935 ft | 424 kts | 220° |
| 2026-04-22 20:29 | 40.94069 | -110.57484 | 35939 ft | 425 kts | 220° |
| 2026-04-22 20:30 | 40.89363 | -110.62266 | 35951 ft | 427 kts | 220° |
| 2026-04-22 20:30 | 40.84648 | -110.67046 | 35955 ft | 428 kts | 220° |
| 2026-04-22 20:31 | 40.79919 | -110.71831 | 35952 ft | 429 kts | 220° |
| 2026-04-22 20:31 | 40.75213 | -110.76586 | 35964 ft | 429 kts | 220° |
| 2026-04-22 20:32 | 40.70479 | -110.81359 | 35974 ft | 429 kts | 220° |
| 2026-04-22 20:32 | 40.65744 | -110.86123 | 35942 ft | 427 kts | 221° |
| 2026-04-22 20:33 | 40.61023 | -110.90867 | 35941 ft | 426 kts | 221° |
| 2026-04-22 20:33 | 40.56307 | -110.95594 | 35945 ft | 424 kts | 221° |
| 2026-04-22 20:34 | 40.51615 | -111.00292 | 35956 ft | 424 kts | 221° |
| 2026-04-22 20:34 | 40.46925 | -111.04979 | 35959 ft | 424 kts | 221° |
| 2026-04-22 20:35 | 40.42230 | -111.09662 | 35933 ft | 423 kts | 221° |
| 2026-04-22 20:35 | 40.37569 | -111.14302 | 36004 ft | 423 kts | 221° |
| 2026-04-22 20:36 | 40.32877 | -111.18966 | 35972 ft | 424 kts | 221° |
| 2026-04-22 20:36 | 40.28180 | -111.23627 | 35960 ft | 424 kts | 221° |
| 2026-04-22 20:37 | 40.23482 | -111.28280 | 35955 ft | 423 kts | 221° |
| 2026-04-22 20:37 | 40.18782 | -111.32926 | 35948 ft | 424 kts | 221° |
| 2026-04-22 20:38 | 40.14082 | -111.37562 | 35939 ft | 421 kts | 222° |
| 2026-04-22 20:38 | 40.09412 | -111.42162 | 35912 ft | 420 kts | 222° |
| 2026-04-22 20:39 | 40.04749 | -111.46746 | 35919 ft | 418 kts | 222° |
| 2026-04-22 20:39 | 40.00110 | -111.51301 | 35913 ft | 417 kts | 222° |
| 2026-04-22 20:40 | 39.95514 | -111.55803 | 35915 ft | 416 kts | 222° |
| 2026-04-22 20:40 | 39.90889 | -111.60329 | 35895 ft | 415 kts | 222° |
| 2026-04-22 20:41 | 39.86280 | -111.64829 | 35916 ft | 414 kts | 222° |
| 2026-04-22 20:41 | 39.81677 | -111.69318 | 35905 ft | 413 kts | 222° |
| 2026-04-22 20:42 | 39.77076 | -111.73797 | 35915 ft | 413 kts | 222° |
| 2026-04-22 20:42 | 39.72471 | -111.78270 | 35909 ft | 413 kts | 222° |
| 2026-04-22 20:43 | 39.67867 | -111.82736 | 35912 ft | 413 kts | 222° |
| 2026-04-22 20:43 | 39.63265 | -111.87193 | 35893 ft | 412 kts | 222° |
| 2026-04-22 20:44 | 39.58668 | -111.91636 | 35887 ft | 412 kts | 222° |
| 2026-04-22 20:44 | 39.54068 | -111.96077 | 35894 ft | 411 kts | 222° |
| 2026-04-22 20:45 | 39.49480 | -112.00499 | 35896 ft | 411 kts | 223° |
| 2026-04-22 20:45 | 39.44917 | -112.04965 | 35884 ft | 411 kts | 223° |
| 2026-04-22 20:46 | 39.38089 | -112.11685 | 35889 ft | 411 kts | 223° |
| 2026-04-22 20:46 | 39.33532 | -112.16154 | 35881 ft | 412 kts | 223° |
| 2026-04-22 20:47 | 39.28957 | -112.20630 | 35901 ft | 413 kts | 223° |
| 2026-04-22 20:47 | 39.24364 | -112.25115 | 35912 ft | 414 kts | 223° |
| 2026-04-22 20:48 | 39.19800 | -112.29561 | 35947 ft | 414 kts | 223° |
| 2026-04-22 20:48 | 39.15203 | -112.34033 | 35974 ft | 414 kts | 223° |
| 2026-04-22 20:49 | 39.10614 | -112.38489 | 35997 ft | 412 kts | 223° |
| 2026-04-22 20:49 | 39.06042 | -112.42922 | 36020 ft | 411 kts | 223° |
| 2026-04-22 20:50 | 39.01481 | -112.47338 | 36046 ft | 410 kts | 223° |
| 2026-04-22 20:50 | 38.96926 | -112.51741 | 35879 ft | 409 kts | 223° |
| 2026-04-22 20:51 | 38.92375 | -112.56133 | 35878 ft | 409 kts | 223° |
| 2026-04-22 20:51 | 38.87824 | -112.60517 | 35873 ft | 408 kts | 223° |
| 2026-04-22 20:52 | 38.83279 | -112.64887 | 35867 ft | 408 kts | 224° |
| 2026-04-22 20:52 | 38.78740 | -112.69247 | 35882 ft | 408 kts | 224° |
| 2026-04-22 20:53 | 38.74191 | -112.73609 | 35879 ft | 408 kts | 223° |
| 2026-04-22 20:53 | 38.69636 | -112.77969 | 35891 ft | 409 kts | 223° |
| 2026-04-22 20:54 | 38.65068 | -112.82334 | 35939 ft | 410 kts | 223° |
| 2026-04-22 20:54 | 38.60493 | -112.86698 | 35948 ft | 411 kts | 223° |
| 2026-04-22 20:55 | 38.55920 | -112.91052 | 35983 ft | 410 kts | 224° |
| 2026-04-22 20:55 | 38.51354 | -112.95393 | 36023 ft | 409 kts | 224° |
| 2026-04-22 20:56 | 38.46791 | -112.99725 | 36027 ft | 408 kts | 224° |
| 2026-04-22 20:56 | 38.42263 | -113.04017 | 36017 ft | 408 kts | 224° |
| 2026-04-22 20:57 | 38.37710 | -113.08325 | 36019 ft | 407 kts | 224° |
| 2026-04-22 20:57 | 38.33155 | -113.12630 | 35988 ft | 408 kts | 224° |
| 2026-04-22 20:58 | 38.28598 | -113.16929 | 35975 ft | 408 kts | 223° |
| 2026-04-22 20:58 | 38.24032 | -113.21229 | 35947 ft | 409 kts | 223° |
| 2026-04-22 20:59 | 38.19454 | -113.25534 | 35928 ft | 410 kts | 223° |
| 2026-04-22 20:59 | 38.14863 | -113.29844 | 35891 ft | 411 kts | 223° |
| 2026-04-22 21:00 | 38.10263 | -113.34156 | 35892 ft | 411 kts | 223° |
| 2026-04-22 21:00 | 38.05662 | -113.38462 | 35878 ft | 410 kts | 223° |
| 2026-04-22 21:01 | 38.01068 | -113.42756 | 35890 ft | 410 kts | 223° |
| 2026-04-22 21:01 | 37.96428 | -113.46965 | 35895 ft | 414 kts | 218° |
| 2026-04-22 21:02 | 37.91123 | -113.50079 | 35922 ft | 425 kts | 210° |
| 2026-04-22 21:02 | 37.85326 | -113.52054 | 35927 ft | 437 kts | 201° |
| 2026-04-22 21:03 | 37.79345 | -113.53445 | 35909 ft | 436 kts | 200° |
| 2026-04-22 21:03 | 37.73378 | -113.54826 | 35917 ft | 435 kts | 201° |
| 2026-04-22 21:04 | 37.67433 | -113.56239 | 35932 ft | 434 kts | 201° |
| 2026-04-22 21:04 | 37.61492 | -113.57668 | 35937 ft | 434 kts | 201° |
| 2026-04-22 21:05 | 37.55556 | -113.59097 | 35929 ft | 434 kts | 201° |
| 2026-04-22 21:05 | 37.49619 | -113.60522 | 35935 ft | 435 kts | 201° |
| 2026-04-22 21:06 | 37.43715 | -113.61936 | 35934 ft | 435 kts | 201° |
| 2026-04-22 21:06 | 37.37760 | -113.63361 | 35950 ft | 436 kts | 201° |
| 2026-04-22 21:07 | 37.31806 | -113.64781 | 35949 ft | 435 kts | 201° |
| 2026-04-22 21:07 | 37.25855 | -113.66199 | 35964 ft | 435 kts | 201° |
| 2026-04-22 21:08 | 37.19911 | -113.67613 | 35999 ft | 434 kts | 201° |
| 2026-04-22 21:08 | 37.13958 | -113.69029 | 35980 ft | 436 kts | 201° |
| 2026-04-22 21:09 | 37.08002 | -113.70441 | 35983 ft | 435 kts | 201° |
| 2026-04-22 21:09 | 37.02238 | -113.72366 | 35990 ft | 422 kts | 211° |
| 2026-04-22 21:10 | 36.96789 | -113.75069 | 35985 ft | 422 kts | 211° |
| 2026-04-22 21:10 | 36.91307 | -113.77745 | 35986 ft | 424 kts | 211° |
| 2026-04-22 21:11 | 36.85788 | -113.80417 | 35942 ft | 426 kts | 210° |
| 2026-04-22 21:11 | 36.80293 | -113.83068 | 35963 ft | 427 kts | 211° |
| 2026-04-22 21:12 | 36.74741 | -113.85746 | 35963 ft | 428 kts | 211° |
| 2026-04-22 21:12 | 36.69179 | -113.88425 | 35990 ft | 428 kts | 211° |
| 2026-04-22 21:13 | 36.64556 | -113.90663 | 35966 ft | 427 kts | 212° |
| 2026-04-22 21:13 | 36.59139 | -113.93643 | 35962 ft | 424 kts | 214° |
| 2026-04-22 21:14 | 36.53769 | -113.96692 | 35958 ft | 424 kts | 213° |
| 2026-04-22 21:14 | 36.48388 | -113.99682 | 35957 ft | 424 kts | 213° |
| 2026-04-22 21:15 | 36.43006 | -114.02649 | 35952 ft | 423 kts | 213° |
| 2026-04-22 21:15 | 36.37907 | -114.06093 | 35950 ft | 413 kts | 220° |
| 2026-04-22 21:16 | 36.33032 | -114.09875 | 35948 ft | 414 kts | 220° |
| 2026-04-22 21:16 | 36.28125 | -114.13638 | 35942 ft | 416 kts | 220° |
| 2026-04-22 21:17 | 36.23185 | -114.17413 | 35945 ft | 418 kts | 220° |
| 2026-04-22 21:17 | 36.18216 | -114.21204 | 35938 ft | 421 kts | 220° |
| 2026-04-22 21:18 | 36.13225 | -114.25005 | 35939 ft | 422 kts | 220° |
| 2026-04-22 21:18 | 36.08525 | -114.29221 | 35882 ft | 413 kts | 228° |
| 2026-04-22 21:19 | 36.04482 | -114.34098 | 35922 ft | 405 kts | 234° |
| 2026-04-22 21:19 | 36.00742 | -114.39312 | 35915 ft | 406 kts | 234° |
| 2026-04-22 21:20 | 35.96992 | -114.44537 | 35927 ft | 407 kts | 234° |
| 2026-04-22 21:20 | 35.93219 | -114.49769 | 35941 ft | 409 kts | 234° |
| 2026-04-22 21:21 | 35.89422 | -114.55015 | 35944 ft | 410 kts | 234° |
| 2026-04-22 21:21 | 35.85615 | -114.60263 | 35919 ft | 411 kts | 234° |
| 2026-04-22 21:22 | 35.81800 | -114.65514 | 35958 ft | 411 kts | 234° |
| 2026-04-22 21:22 | 35.77979 | -114.70765 | 35968 ft | 411 kts | 234° |
| 2026-04-22 21:23 | 35.74158 | -114.76010 | 35967 ft | 411 kts | 234° |
| 2026-04-22 21:23 | 35.70343 | -114.81238 | 36004 ft | 410 kts | 234° |
| 2026-04-22 21:24 | 35.66536 | -114.86447 | 36007 ft | 409 kts | 234° |
| 2026-04-22 21:24 | 35.62739 | -114.91652 | 36003 ft | 409 kts | 234° |
| 2026-04-22 21:25 | 35.58942 | -114.96860 | 35995 ft | 409 kts | 234° |
| 2026-04-22 21:25 | 35.55152 | -115.02050 | 36031 ft | 408 kts | 234° |
| 2026-04-22 21:26 | 35.51363 | -115.07228 | 36018 ft | 407 kts | 234° |
| 2026-04-22 21:26 | 35.47547 | -115.12309 | 36009 ft | 407 kts | 233° |
| 2026-04-22 21:27 | 35.43652 | -115.17360 | 36012 ft | 407 kts | 233° |
| 2026-04-22 21:27 | 35.39759 | -115.22411 | 36027 ft | 408 kts | 233° |
| 2026-04-22 21:28 | 35.35863 | -115.27479 | 36039 ft | 409 kts | 233° |
| 2026-04-22 21:28 | 35.31955 | -115.32559 | 36030 ft | 410 kts | 233° |
| 2026-04-22 21:29 | 35.28039 | -115.37644 | 36023 ft | 410 kts | 233° |
| 2026-04-22 21:29 | 35.24118 | -115.42726 | 36052 ft | 411 kts | 233° |
| 2026-04-22 21:30 | 35.20186 | -115.47815 | 36048 ft | 412 kts | 233° |
| 2026-04-22 21:30 | 35.16250 | -115.52902 | 36052 ft | 412 kts | 233° |
| 2026-04-22 21:31 | 35.12336 | -115.57952 | 36016 ft | 412 kts | 233° |
| 2026-04-22 21:31 | 35.08385 | -115.63014 | 36035 ft | 412 kts | 233° |
| 2026-04-22 21:32 | 35.04814 | -115.67574 | 36034 ft | 411 kts | 233° |
| 2026-04-22 21:32 | 35.00858 | -115.72622 | 36044 ft | 412 kts | 233° |
| 2026-04-22 21:33 | 34.96893 | -115.77677 | 36047 ft | 412 kts | 233° |
| 2026-04-22 21:33 | 34.93102 | -115.82505 | 36029 ft | 413 kts | 233° |
| 2026-04-22 21:34 | 34.89332 | -115.87297 | 36032 ft | 414 kts | 233° |
| 2026-04-22 21:34 | 34.85538 | -115.92114 | 36029 ft | 414 kts | 232° |
| 2026-04-22 21:35 | 34.81605 | -115.97102 | 36018 ft | 414 kts | 233° |
| 2026-04-22 21:35 | 34.77620 | -116.02146 | 36017 ft | 413 kts | 233° |
| 2026-04-22 21:36 | 34.73646 | -116.07197 | 36024 ft | 412 kts | 233° |
| 2026-04-22 21:36 | 34.69686 | -116.12245 | 36017 ft | 413 kts | 233° |
| 2026-04-22 21:37 | 34.65753 | -116.17250 | 36019 ft | 412 kts | 233° |
| 2026-04-22 21:37 | 34.61796 | -116.22277 | 36029 ft | 411 kts | 233° |
| 2026-04-22 21:38 | 34.57832 | -116.27304 | 35746 ft | 416 kts | 233° |
| 2026-04-22 21:38 | 34.55818 | -116.29858 | 35189 ft | 418 kts | 232° |
| 2026-04-22 21:38 | 34.53814 | -116.32391 | 34614 ft | 414 kts | 232° |
| 2026-04-22 21:39 | 34.51826 | -116.34901 | 34059 ft | 411 kts | 232° |
| 2026-04-22 21:39 | 34.49856 | -116.37391 | 33437 ft | 408 kts | 232° |
| 2026-04-22 21:39 | 34.47900 | -116.39861 | 32852 ft | 405 kts | 232° |
| 2026-04-22 21:39 | 34.45955 | -116.42318 | 32280 ft | 401 kts | 232° |
| 2026-04-22 21:40 | 34.44021 | -116.44755 | 31744 ft | 398 kts | 232° |
| 2026-04-22 21:40 | 34.42160 | -116.47142 | 31235 ft | 393 kts | 235° |
| 2026-04-22 21:40 | 34.40789 | -116.49545 | 30740 ft | 382 kts | 247° |
| 2026-04-22 21:40 | 34.40028 | -116.51504 | 30417 ft | 378 kts | 248° |
| 2026-04-22 21:41 | 34.39343 | -116.53275 | 30105 ft | 377 kts | 248° |
| 2026-04-22 21:41 | 34.38204 | -116.56130 | 29507 ft | 375 kts | 247° |
| 2026-04-22 21:41 | 34.37053 | -116.58957 | 28942 ft | 373 kts | 247° |
| 2026-04-22 21:41 | 34.35901 | -116.61755 | 28414 ft | 370 kts | 247° |
| 2026-04-22 21:42 | 34.34754 | -116.64534 | 27899 ft | 368 kts | 246° |
| 2026-04-22 21:42 | 34.33612 | -116.67298 | 27375 ft | 366 kts | 246° |
| 2026-04-22 21:42 | 34.32484 | -116.70060 | 26747 ft | 366 kts | 247° |
| 2026-04-22 21:42 | 34.31415 | -116.72721 | 26230 ft | 365 kts | 247° |
| 2026-04-22 21:43 | 34.30308 | -116.75483 | 25727 ft | 363 kts | 247° |
| 2026-04-22 21:43 | 34.29221 | -116.78194 | 25218 ft | 362 kts | 247° |
| 2026-04-22 21:43 | 34.28124 | -116.80927 | 24719 ft | 360 kts | 246° |
| 2026-04-22 21:43 | 34.27030 | -116.83643 | 24216 ft | 359 kts | 246° |
| 2026-04-22 21:44 | 34.25938 | -116.86353 | 23714 ft | 358 kts | 246° |
| 2026-04-22 21:44 | 34.24847 | -116.89055 | 23160 ft | 357 kts | 246° |
| 2026-04-22 21:44 | 34.23780 | -116.91695 | 22623 ft | 342 kts | 246° |
| 2026-04-22 21:44 | 34.22744 | -116.94257 | 22168 ft | 338 kts | 246° |
| 2026-04-22 21:45 | 34.21712 | -116.96808 | 21705 ft | 336 kts | 246° |
| 2026-04-22 21:45 | 34.20741 | -116.99366 | 21261 ft | 334 kts | 251° |
| 2026-04-22 21:45 | 34.20478 | -117.00224 | 21125 ft | 333 kts | 252° |
| 2026-04-22 21:46 | 34.20082 | -117.01669 | 20871 ft | 333 kts | 254° |
| 2026-04-22 21:46 | 34.19410 | -117.04333 | 20397 ft | 330 kts | 255° |
| 2026-04-22 21:46 | 34.18742 | -117.06969 | 19974 ft | 328 kts | 254° |
| 2026-04-22 21:46 | 34.18063 | -117.09560 | 19515 ft | 328 kts | 254° |
| 2026-04-22 21:47 | 34.17360 | -117.12179 | 19087 ft | 328 kts | 254° |
| 2026-04-22 21:47 | 34.16649 | -117.14803 | 18612 ft | 329 kts | 254° |
| 2026-04-22 21:47 | 34.15936 | -117.17419 | 18144 ft | 326 kts | 253° |
| 2026-04-22 21:47 | 34.15221 | -117.20020 | 17681 ft | 327 kts | 254° |
| 2026-04-22 21:48 | 34.14504 | -117.22617 | 17231 ft | 325 kts | 253° |
| 2026-04-22 21:48 | 34.13789 | -117.25207 | 16769 ft | 325 kts | 253° |
| 2026-04-22 21:48 | 34.13075 | -117.27796 | 16321 ft | 324 kts | 253° |
| 2026-04-22 21:48 | 34.12363 | -117.30380 | 15853 ft | 323 kts | 253° |
| 2026-04-22 21:49 | 34.11653 | -117.32955 | 15426 ft | 323 kts | 253° |
| 2026-04-22 21:49 | 34.10943 | -117.35524 | 14986 ft | 323 kts | 253° |
| 2026-04-22 21:49 | 34.10244 | -117.38097 | 14541 ft | 322 kts | 254° |
| 2026-04-22 21:49 | 34.09595 | -117.40683 | 14097 ft | 322 kts | 255° |
| 2026-04-22 21:50 | 34.08965 | -117.43244 | 13615 ft | 323 kts | 255° |
| 2026-04-22 21:50 | 34.08322 | -117.45836 | 13162 ft | 322 kts | 255° |
| 2026-04-22 21:50 | 34.07683 | -117.48386 | 13014 ft | 313 kts | 255° |
| 2026-04-22 21:50 | 34.07059 | -117.50867 | 12705 ft | 308 kts | 255° |
| 2026-04-22 21:51 | 34.06431 | -117.53331 | 12308 ft | 306 kts | 255° |
| 2026-04-22 21:51 | 34.05807 | -117.55770 | 11921 ft | 304 kts | 255° |
| 2026-04-22 21:51 | 34.05187 | -117.58193 | 11525 ft | 302 kts | 255° |
| 2026-04-22 21:52 | 34.03955 | -117.63014 | 10752 ft | 299 kts | 255° |
| 2026-04-22 21:52 | 34.03343 | -117.65399 | 10472 ft | 295 kts | 255° |
| 2026-04-22 21:52 | 34.02747 | -117.67717 | 10330 ft | 286 kts | 255° |
| 2026-04-22 21:52 | 34.02183 | -117.69950 | 10181 ft | 269 kts | 258° |
| 2026-04-22 21:53 | 34.01883 | -117.72116 | 10091 ft | 262 kts | 265° |
| 2026-04-22 21:53 | 34.01702 | -117.74316 | 9944 ft | 265 kts | 266° |
| 2026-04-22 21:53 | 34.01513 | -117.76554 | 9576 ft | 268 kts | 265° |
| 2026-04-22 21:53 | 34.01321 | -117.78773 | 9255 ft | 265 kts | 265° |
| 2026-04-22 21:54 | 34.01115 | -117.80977 | 8922 ft | 264 kts | 265° |
| 2026-04-22 21:54 | 34.00904 | -117.83174 | 8586 ft | 263 kts | 265° |
| 2026-04-22 21:54 | 34.00693 | -117.85363 | 8263 ft | 264 kts | 265° |
| 2026-04-22 21:54 | 34.00479 | -117.87560 | 7918 ft | 264 kts | 265° |
| 2026-04-22 21:55 | 34.00275 | -117.89757 | 7562 ft | 263 kts | 267° |
| 2026-04-22 21:55 | 34.00111 | -117.91954 | 7257 ft | 263 kts | 266° |
| 2026-04-22 21:55 | 33.99921 | -117.94149 | 6916 ft | 263 kts | 265° |
| 2026-04-22 21:55 | 33.99709 | -117.96338 | 6622 ft | 264 kts | 265° |
| 2026-04-22 21:56 | 33.99490 | -117.98521 | 6238 ft | 267 kts | 265° |
| 2026-04-22 21:56 | 33.99266 | -118.00709 | 5888 ft | 257 kts | 265° |
| 2026-04-22 21:56 | 33.99098 | -118.02307 | 5628 ft | 248 kts | 264° |
| 2026-04-22 21:56 | 33.98890 | -118.04339 | 5344 ft | 242 kts | 264° |
| 2026-04-22 21:57 | 33.98685 | -118.06349 | 5137 ft | 235 kts | 263° |
| 2026-04-22 21:57 | 33.98486 | -118.08273 | 4950 ft | 228 kts | 265° |
| 2026-04-22 21:57 | 33.98296 | -118.10109 | 4764 ft | 219 kts | 265° |
| 2026-04-22 21:57 | 33.98116 | -118.11877 | 4675 ft | 206 kts | 264° |
| 2026-04-22 21:58 | 33.97944 | -118.13564 | 4453 ft | 198 kts | 264° |
| 2026-04-22 21:58 | 33.97778 | -118.15172 | 4179 ft | 190 kts | 264° |
| 2026-04-22 21:58 | 33.97621 | -118.16722 | 3938 ft | 184 kts | 264° |
| 2026-04-22 21:58 | 33.97466 | -118.18222 | 3704 ft | 177 kts | 263° |
| 2026-04-22 21:59 | 33.97314 | -118.19712 | 3487 ft | 181 kts | 263° |
| 2026-04-22 21:59 | 33.97161 | -118.21205 | 3257 ft | 177 kts | 263° |
| 2026-04-22 21:59 | 33.97010 | -118.22665 | 2996 ft | 174 kts | 263° |
| 2026-04-22 21:59 | 33.96863 | -118.24103 | 2789 ft | 174 kts | 262° |
| 2026-04-22 22:00 | 33.96711 | -118.25571 | 2545 ft | 177 kts | 262° |
| 2026-04-22 22:00 | 33.96560 | -118.27046 | 2306 ft | 177 kts | 262° |
| 2026-04-22 22:00 | 33.96414 | -118.28483 | 2060 ft | 166 kts | 262° |
| 2026-04-22 22:00 | 33.96278 | -118.29803 | 1867 ft | 154 kts | 261° |
| 2026-04-22 22:01 | 33.96150 | -118.31044 | 1647 ft | 145 kts | 263° |
| 2026-04-22 22:01 | 33.96032 | -118.32192 | 1483 ft | 137 kts | 263° |
| 2026-04-22 22:01 | 33.95915 | -118.33348 | 1299 ft | 137 kts | 262° |
| 2026-04-22 22:01 | 33.95800 | -118.34456 | 1076 ft | 131 kts | 263° |
| 2026-04-22 22:02 | 33.95727 | -118.35181 | 976 ft | 134 kts | 262° |
| 2026-04-22 22:02 | 33.95611 | -118.36308 | 777 ft | 136 kts | 261° |
| 2026-04-22 22:02 | 33.95501 | -118.37404 | 605 ft | 126 kts | 260° |
| 2026-04-22 22:02 | 33.95392 | -118.38409 | 396 ft | 119 kts | 260° |
| 2026-04-22 22:03 | 33.95287 | -118.39430 | 249 ft | 126 kts | 261° |
| 2026-04-22 22:03 | 33.95181 | -118.40493 | 113 ft | 128 kts | 261° |
| 2026-04-22 22:03 | 33.95081 | -118.41451 | 100 ft | 95 kts | 263° |
| 2026-04-22 22:03 | 33.95022 | -118.42018 | 99 ft | 52 kts | 263° |
| 2026-04-22 22:04 | 33.94982 | -118.42282 | 100 ft | 27 kts | 250° |
| 2026-04-22 22:04 | 33.94916 | -118.42406 | 101 ft | 13 kts | 229° |
| 2026-04-22 22:04 | 33.94882 | -118.42447 | 103 ft | 0 kts | 219° |
| 2026-04-22 22:05 | 33.94877 | -118.42451 | 103 ft | 4 kts | 218° |
| 2026-04-22 22:05 | 33.94823 | -118.42485 | 106 ft | 10 kts | 194° |
| 2026-04-22 22:06 | 33.94755 | -118.42485 | 105 ft | 10 kts | 171° |
| 2026-04-22 22:06 | 33.94682 | -118.42461 | 101 ft | 12 kts | 138° |
| 2026-04-22 22:06 | 33.94670 | -118.42361 | 99 ft | 13 kts | 82° |
| 2026-04-22 22:06 | 33.94682 | -118.42254 | 98 ft | 13 kts | 82° |
| 2026-04-22 22:07 | 33.94694 | -118.42141 | 98 ft | 14 kts | 83° |
| 2026-04-22 22:07 | 33.94704 | -118.42027 | 99 ft | 14 kts | 83° |
| 2026-04-22 22:07 | 33.94716 | -118.41912 | 100 ft | 14 kts | 83° |
| 2026-04-22 22:07 | 33.94728 | -118.41797 | 101 ft | 14 kts | 83° |
| 2026-04-22 22:08 | 33.94739 | -118.41683 | 98 ft | 14 kts | 83° |
| 2026-04-22 22:08 | 33.94750 | -118.41568 | 98 ft | 14 kts | 83° |
| 2026-04-22 22:08 | 33.94763 | -118.41453 | 102 ft | 14 kts | 78° |
| 2026-04-22 22:08 | 33.94786 | -118.41348 | 100 ft | 10 kts | 81° |
| 2026-04-22 22:09 | 33.94745 | -118.41292 | 99 ft | 10 kts | 171° |
| 2026-04-22 22:09 | 33.94674 | -118.41280 | 99 ft | 11 kts | 172° |
| 2026-04-22 22:09 | 33.94602 | -118.41269 | 100 ft | 11 kts | 173° |
| 2026-04-22 22:09 | 33.94539 | -118.41255 | 100 ft | 7 kts | 150° |
| 2026-04-22 22:10 | 33.94527 | -118.41204 | 101 ft | 7 kts | 96° |
| 2026-04-22 22:10 | 33.94523 | -118.41164 | 98 ft | 4 kts | 97° |
| 2026-04-22 22:10 | 33.94521 | -118.41148 | 98 ft | 1 kts | 97° |
| 2026-04-22 22:10 | 33.94521 | -118.41146 | 98 ft | 0 kts | 96° |